createdAt,value
2022-12-25T00:01:17.108Z,100753.16
2022-12-25T00:03:44.180Z,100789.72
2022-12-25T00:06:11.575Z,100773.19
2022-12-25T00:08:39.800Z,100798.91
2022-12-25T00:11:08.937Z,100773.31
2022-12-25T00:13:35.478Z,100813.84
2022-12-25T00:16:10.417Z,100804.88
2022-12-25T00:18:36.964Z,100797.34
2022-12-25T00:21:06.097Z,100800.75
2022-12-25T00:23:33.708Z,100803.25
2022-12-25T00:26:05.588Z,100814.78
2022-12-25T00:28:32.084Z,100778.94
2022-12-25T00:30:58.761Z,100831.38
2022-12-25T00:33:26.329Z,100838.72
2022-12-25T00:36:00.377Z,100841.31
2022-12-25T00:38:27.317Z,100832.22
2022-12-25T00:40:54.314Z,100835.38
2022-12-25T00:43:21.490Z,100831.41
2022-12-25T00:45:56.419Z,100821.25
2022-12-25T00:48:23.280Z,100840.22
2022-12-25T00:50:53.780Z,100831.94
2022-12-25T00:53:20.369Z,100823.53
2022-12-25T00:55:59.350Z,100797.03
2022-12-25T00:58:27.344Z,100823.66
2022-12-25T01:00:54.467Z,100793.72
2022-12-25T01:03:21.071Z,100795.75
2022-12-25T01:06:00.521Z,100794.72
2022-12-25T01:08:28.786Z,100791.66
2022-12-25T01:10:56.820Z,100782.25
2022-12-25T01:13:23.600Z,100781.50
2022-12-25T01:15:52.096Z,100788.50
2022-12-25T01:18:19.416Z,100794.78
2022-12-25T01:20:46.089Z,100754.59
2022-12-25T01:23:12.663Z,100793.34
2022-12-25T01:25:39.150Z,100762.59
2022-12-25T01:28:06.052Z,100773.28
2022-12-25T01:30:32.964Z,100792.56
2022-12-25T01:32:59.554Z,100809.34
2022-12-25T01:35:26.133Z,100768.16
2022-12-25T01:37:52.687Z,100808.22
2022-12-25T01:40:19.361Z,100800.09
2022-12-25T01:42:46.008Z,100775.81
2022-12-25T01:45:41.388Z,100808.03
2022-12-25T01:48:17.742Z,100801.41
2022-12-25T01:50:46.584Z,100800.34
2022-12-25T01:53:13.241Z,100770.94
2022-12-25T01:55:40.977Z,100780.84
2022-12-25T01:58:07.631Z,100802.06
2022-12-25T02:00:34.412Z,100749.16
2022-12-25T02:03:01.005Z,100758.19
2022-12-25T02:05:30.898Z,100793.44
2022-12-25T02:08:00.751Z,100761.75
2022-12-25T02:10:27.436Z,100772.69
2022-12-25T02:12:54.097Z,100745.31
2022-12-25T02:15:23.341Z,100738.31
2022-12-25T02:18:01.283Z,100787.91
2022-12-25T02:21:01.959Z,100802.09
2022-12-25T02:23:53.923Z,100721.53
2022-12-25T02:26:47.749Z,100798.44
2022-12-25T02:29:25.715Z,100794.00
2022-12-25T02:32:03.113Z,100779.88
2022-12-25T02:34:35.585Z,100764.53
2022-12-25T02:37:07.133Z,100804.97
2022-12-25T02:39:58.530Z,100807.41
2022-12-25T02:43:14.828Z,100811.00
2022-12-25T02:46:06.666Z,100805.94
2022-12-25T02:48:55.438Z,100772.25
2022-12-25T02:51:43.468Z,100778.28
2022-12-25T02:54:31.653Z,100810.66
2022-12-25T02:57:18.843Z,100812.22
2022-12-25T03:00:06.141Z,100803.41
2022-12-25T03:02:51.780Z,100806.44
2022-12-25T03:05:40.544Z,100785.31
2022-12-25T03:08:10.872Z,100801.38
2022-12-25T03:10:58.092Z,100793.53
2022-12-25T03:13:29.191Z,100774.53
2022-12-25T03:16:14.679Z,100756.41
2022-12-25T03:18:41.564Z,100762.50
2022-12-25T03:21:27.339Z,100792.59
2022-12-25T03:24:14.524Z,100786.00
2022-12-25T03:26:56.428Z,100782.75
2022-12-25T03:29:58.305Z,100790.38
2022-12-25T03:32:48.736Z,100751.31
2022-12-25T03:36:04.105Z,100792.16
2022-12-25T03:38:51.170Z,100782.78
2022-12-25T03:41:51.828Z,100781.63
2022-12-25T03:44:55.110Z,100784.25
2022-12-25T03:47:49.376Z,100784.22
2022-12-25T03:50:48.975Z,100748.47
2022-12-25T03:53:48.473Z,100771.50
2022-12-25T03:56:36.066Z,100750.53
2022-12-25T03:59:24.003Z,100755.78
2022-12-25T04:02:10.071Z,100725.22
2022-12-25T04:04:55.648Z,100735.72
2022-12-25T04:07:40.882Z,100758.63
2022-12-25T04:10:26.259Z,100733.75
2022-12-25T04:13:11.290Z,100724.09
2022-12-25T04:15:56.596Z,100733.84
2022-12-25T04:18:41.917Z,100705.03
2022-12-25T04:21:26.854Z,100702.38
2022-12-25T04:24:11.924Z,100739.81
2022-12-25T04:26:57.113Z,100724.53
2022-12-25T04:29:42.012Z,100715.09
2022-12-25T04:32:30.220Z,100722.59
2022-12-25T04:35:15.468Z,100748.53
2022-12-25T04:37:42.044Z,100763.44
2022-12-25T04:40:09.231Z,100716.69
2022-12-25T04:42:35.990Z,100746.00
2022-12-25T04:45:02.617Z,100758.81
2022-12-25T04:47:29.143Z,100737.13
2022-12-25T04:49:55.751Z,100752.28
2022-12-25T04:52:22.323Z,100756.53
2022-12-25T04:54:48.949Z,100708.97
2022-12-25T04:57:16.133Z,100700.16
2022-12-25T04:59:42.686Z,100755.91
2022-12-25T05:02:09.306Z,100724.31
2022-12-25T05:04:35.921Z,100736.44
2022-12-25T05:07:02.511Z,100758.59
2022-12-25T05:09:29.205Z,100747.88
2022-12-25T05:11:55.692Z,100685.81
2022-12-25T05:14:22.182Z,100744.06
2022-12-25T05:16:48.628Z,100742.78
2022-12-25T05:19:15.097Z,100732.41
2022-12-25T05:21:41.671Z,100730.91
2022-12-25T05:24:08.261Z,100711.75
2022-12-25T05:26:34.857Z,100733.19
2022-12-25T05:29:01.340Z,100729.44
2022-12-25T05:31:28.215Z,100703.56
2022-12-25T05:33:54.828Z,100699.41
2022-12-25T05:36:21.520Z,100724.06
2022-12-25T05:38:48.020Z,100727.09
2022-12-25T05:41:14.564Z,100681.34
2022-12-25T05:43:41.056Z,100687.84
2022-12-25T05:46:09.242Z,100719.09
2022-12-25T05:48:38.019Z,100680.91
2022-12-25T05:51:05.873Z,100603.25
2022-12-25T05:53:32.522Z,100659.81
2022-12-25T05:56:02.225Z,100667.78
2022-12-25T05:58:29.468Z,100683.25
2022-12-25T06:00:56.633Z,100689.72
2022-12-25T06:03:24.044Z,100705.78
2022-12-25T06:05:50.860Z,100704.19
2022-12-25T06:08:17.425Z,100633.94
2022-12-25T06:10:44.203Z,100675.31
2022-12-25T06:13:11.263Z,100689.09
2022-12-25T06:15:41.468Z,100699.53
2022-12-25T06:18:08.855Z,100698.53
2022-12-25T06:20:35.400Z,100665.41
2022-12-25T06:23:02.204Z,100684.63
2022-12-25T06:25:28.671Z,100664.34
2022-12-25T06:27:55.194Z,100663.50
2022-12-25T06:30:21.768Z,100670.72
2022-12-25T06:32:48.387Z,100642.03
2022-12-25T06:35:14.978Z,100648.19
2022-12-25T06:37:41.520Z,100677.88
2022-12-25T06:40:08.606Z,100564.13
2022-12-25T06:42:35.053Z,100683.78
2022-12-25T06:45:02.049Z,100644.91
2022-12-25T06:47:28.617Z,100655.06
2022-12-25T06:49:55.476Z,100633.09
2022-12-25T06:52:21.963Z,100667.47
2022-12-25T06:54:49.070Z,100606.31
2022-12-25T06:57:15.709Z,100644.94
2022-12-25T06:59:42.650Z,100636.84
2022-12-25T07:02:17.329Z,100636.72
2022-12-25T07:04:44.439Z,100646.00
2022-12-25T07:07:11.660Z,100657.97
2022-12-25T07:09:42.528Z,100612.81
2022-12-25T07:12:23.601Z,100620.94
2022-12-25T07:14:54.391Z,100649.03
2022-12-25T07:17:21.073Z,100659.16
2022-12-25T07:19:47.829Z,100653.22
2022-12-25T07:22:15.604Z,100645.41
2022-12-25T07:24:42.410Z,100628.44
2022-12-25T07:27:09.198Z,100578.84
2022-12-25T07:29:35.745Z,100598.38
2022-12-25T07:32:02.390Z,100601.56
2022-12-25T07:34:29.039Z,100633.50
2022-12-25T07:36:55.700Z,100623.88
2022-12-25T07:39:23.607Z,100583.50
2022-12-25T07:41:50.232Z,100540.53
2022-12-25T07:44:16.926Z,100572.78
2022-12-25T07:46:43.411Z,100611.13
2022-12-25T07:49:11.039Z,100620.25
2022-12-25T07:51:37.686Z,100593.88
2022-12-25T07:54:04.280Z,100584.53
2022-12-25T07:56:30.872Z,100572.19
2022-12-25T07:58:57.340Z,100585.38
2022-12-25T08:01:26.680Z,100613.84
2022-12-25T08:03:55.767Z,100620.47
2022-12-25T08:06:25.871Z,100615.22
2022-12-25T08:08:52.522Z,100586.56
2022-12-25T08:11:18.982Z,100619.94
2022-12-25T08:13:45.682Z,100601.94
2022-12-25T08:16:12.470Z,100547.88
2022-12-25T08:18:40.299Z,100569.34
2022-12-25T08:21:09.471Z,100575.50
2022-12-25T08:23:38.309Z,100521.38
2022-12-25T08:26:06.063Z,100572.84
2022-12-25T08:28:33.986Z,100542.13
2022-12-25T08:31:25.740Z,100568.22
2022-12-25T08:33:55.124Z,100562.84
2022-12-25T08:36:22.275Z,100590.78
2022-12-25T08:38:49.051Z,100566.19
2022-12-25T08:41:16.179Z,100588.41
2022-12-25T08:43:43.524Z,100587.31
2022-12-25T08:46:10.672Z,100592.84
2022-12-25T08:48:37.748Z,100560.38
2022-12-25T08:51:04.989Z,100593.94
2022-12-25T08:53:34.570Z,100560.81
2022-12-25T08:56:04.505Z,100527.34
2022-12-25T08:58:31.590Z,100586.09
2022-12-25T09:00:58.338Z,100575.19
2022-12-25T09:03:25.030Z,100548.56
2022-12-25T09:05:53.029Z,100555.41
2022-12-25T09:08:21.790Z,100559.50
2022-12-25T09:10:48.998Z,100580.66
2022-12-25T09:13:15.467Z,100558.81
2022-12-25T09:15:42.024Z,100579.09
2022-12-25T09:18:08.791Z,100606.78
2022-12-25T09:20:35.421Z,100624.88
2022-12-25T09:23:01.876Z,100609.59
2022-12-25T09:25:29.830Z,100611.56
2022-12-25T09:27:57.167Z,100592.47
2022-12-25T09:30:24.017Z,100557.53
2022-12-25T09:32:50.811Z,100574.34
2022-12-25T09:35:18.938Z,100586.13
2022-12-25T09:37:45.663Z,100559.34
2022-12-25T09:40:15.615Z,100540.00
2022-12-25T09:42:42.271Z,100558.53
2022-12-25T09:45:15.273Z,100567.63
2022-12-25T09:47:44.715Z,100518.25
2022-12-25T09:50:16.064Z,100571.41
2022-12-25T09:52:45.557Z,100568.03
2022-12-25T09:55:20.625Z,100539.88
2022-12-25T09:57:51.841Z,100545.88
2022-12-25T10:00:21.718Z,100540.97
2022-12-25T10:03:03.770Z,100580.53
2022-12-25T10:05:30.428Z,100588.13
2022-12-25T10:08:07.787Z,100541.69
2022-12-25T10:10:43.495Z,100599.47
2022-12-25T10:13:39.505Z,100614.91
2022-12-25T10:16:32.176Z,100616.56
2022-12-25T10:19:05.847Z,100609.84
2022-12-25T10:21:32.698Z,100602.28
2022-12-25T10:23:59.259Z,100606.78
2022-12-25T10:26:26.823Z,100570.44
2022-12-25T10:28:58.722Z,100584.75
2022-12-25T10:31:27.786Z,100577.00
2022-12-25T10:33:54.610Z,100576.69
2022-12-25T10:36:24.437Z,100548.34
2022-12-25T10:38:51.757Z,100531.81
2022-12-25T10:41:22.611Z,100550.84
2022-12-25T10:43:51.472Z,100521.44
2022-12-25T10:46:18.736Z,100515.84
2022-12-25T10:48:48.619Z,100487.84
2022-12-25T10:51:26.933Z,100449.97
2022-12-25T10:53:53.544Z,100474.50
2022-12-25T10:56:20.221Z,100457.66
2022-12-25T10:58:46.736Z,100499.56
2022-12-25T11:01:13.592Z,100511.06
2022-12-25T11:03:44.671Z,100505.72
2022-12-25T11:06:28.553Z,100494.34
2022-12-25T11:08:57.934Z,100507.00
2022-12-25T11:11:25.533Z,100510.34
2022-12-25T11:13:55.112Z,100506.28
2022-12-25T11:16:35.414Z,100491.81
2022-12-25T11:19:02.520Z,100488.63
2022-12-25T11:21:32.210Z,100493.09
2022-12-25T11:24:06.949Z,100491.00
2022-12-25T11:26:48.300Z,100486.66
2022-12-25T11:29:30.132Z,100485.38
2022-12-25T11:31:58.860Z,100479.88
2022-12-25T11:34:31.317Z,100460.97
2022-12-25T11:36:59.046Z,100444.25
2022-12-25T11:39:34.629Z,100423.50
2022-12-25T11:42:18.455Z,100456.41
2022-12-25T11:44:52.672Z,100449.25
2022-12-25T11:47:24.473Z,100433.66
2022-12-25T11:50:00.150Z,100414.84
2022-12-25T11:52:30.200Z,100404.72
2022-12-25T11:55:08.766Z,100400.69
2022-12-25T11:57:35.689Z,100389.09
2022-12-25T12:00:06.867Z,100412.34
2022-12-25T12:02:44.554Z,100395.69
2022-12-25T12:05:26.669Z,100377.50
2022-12-25T12:08:01.732Z,100380.38
2022-12-25T12:10:33.661Z,100353.13
2022-12-25T12:13:19.095Z,100368.22
2022-12-25T12:15:47.457Z,100359.53
2022-12-25T12:18:26.200Z,100357.47
2022-12-25T12:21:07.785Z,100369.34
2022-12-25T12:23:50.169Z,100355.13
2022-12-25T12:26:20.347Z,100323.88
2022-12-25T12:28:47.864Z,100304.41
2022-12-25T12:31:14.958Z,100333.88
2022-12-25T12:33:47.744Z,100328.31
2022-12-25T12:36:14.622Z,100289.13
2022-12-25T12:38:43.476Z,100315.56
2022-12-25T12:41:12.359Z,100301.44
2022-12-25T12:43:42.892Z,100320.78
2022-12-25T12:46:30.898Z,100314.22
2022-12-25T12:49:19.603Z,100302.97
2022-12-25T12:51:46.468Z,100285.34
2022-12-25T12:54:20.852Z,100311.50
2022-12-25T12:57:07.135Z,100312.72
2022-12-25T12:59:46.722Z,100318.63
2022-12-25T13:02:52.341Z,100267.16
2022-12-25T13:05:20.650Z,100312.59
2022-12-25T13:08:02.426Z,100269.50
2022-12-25T13:10:37.775Z,100290.53
2022-12-25T13:13:17.388Z,100257.31
2022-12-25T13:15:46.486Z,100282.16
2022-12-25T13:18:13.566Z,100260.44
2022-12-25T13:20:40.009Z,100285.75
2022-12-25T13:23:26.324Z,100248.53
2022-12-25T13:25:58.036Z,100264.72
2022-12-25T13:28:33.386Z,100270.97
2022-12-25T13:31:06.757Z,100274.41
2022-12-25T13:33:36.301Z,100271.03
2022-12-25T13:36:04.918Z,100242.38
2022-12-25T13:38:31.651Z,100249.16
2022-12-25T13:41:17.854Z,100260.94
2022-12-25T13:43:45.044Z,100241.31
2022-12-25T13:46:14.329Z,100247.22
2022-12-25T13:48:42.115Z,100197.38
2022-12-25T13:51:14.668Z,100190.72
2022-12-25T13:53:41.178Z,100237.53
2022-12-25T13:56:13.540Z,100209.00
2022-12-25T13:58:40.256Z,100243.16
2022-12-25T14:01:07.626Z,100236.81
2022-12-25T14:03:46.087Z,100240.63
2022-12-25T14:06:28.941Z,100246.44
2022-12-25T14:08:56.861Z,100224.06
2022-12-25T14:11:25.049Z,100235.28
2022-12-25T14:13:54.803Z,100240.47
2022-12-25T14:16:22.015Z,100208.53
2022-12-25T14:18:59.817Z,100237.19
2022-12-25T14:21:35.358Z,100186.38
2022-12-25T14:24:02.098Z,100227.69
2022-12-25T14:26:32.300Z,100221.38
2022-12-25T14:29:04.976Z,100223.63
2022-12-25T14:31:32.388Z,100173.94
2022-12-25T14:34:00.365Z,100180.31
2022-12-25T14:36:27.691Z,100213.31
2022-12-25T14:38:58.965Z,100225.28
2022-12-25T14:41:37.889Z,100197.41
2022-12-25T14:44:27.644Z,100226.88
2022-12-25T14:47:06.704Z,100223.94
2022-12-25T14:49:33.456Z,100217.72
2022-12-25T14:52:00.179Z,100208.41
2022-12-25T14:54:26.766Z,100219.25
2022-12-25T14:56:56.076Z,100223.41
2022-12-25T14:59:26.522Z,100224.25
2022-12-25T15:01:57.345Z,100226.44
2022-12-25T15:04:25.224Z,100187.59
2022-12-25T15:06:57.216Z,100223.22
2022-12-25T15:09:23.947Z,100180.94
2022-12-25T15:11:51.903Z,100221.81
2022-12-25T15:14:18.651Z,100159.78
2022-12-25T15:16:47.570Z,100207.16
2022-12-25T15:19:26.461Z,100205.78
2022-12-25T15:21:55.526Z,100201.97
2022-12-25T15:24:22.811Z,100218.69
2022-12-25T15:26:49.621Z,100218.19
2022-12-25T15:29:16.369Z,100189.00
2022-12-25T15:31:43.064Z,100198.75
2022-12-25T15:34:17.740Z,100185.34
2022-12-25T15:36:44.191Z,100200.09
2022-12-25T15:39:10.685Z,100192.06
2022-12-25T15:41:57.140Z,100192.59
2022-12-25T15:44:24.551Z,100188.13
2022-12-25T15:46:51.743Z,100156.00
2022-12-25T15:49:18.589Z,100138.47
2022-12-25T15:51:45.724Z,100156.38
2022-12-25T15:54:12.224Z,100126.09
2022-12-25T15:56:41.097Z,100179.63
2022-12-25T15:59:10.051Z,100169.47
2022-12-25T16:01:42.279Z,100138.16
2022-12-25T16:04:10.416Z,100079.19
2022-12-25T16:06:37.262Z,100178.94
2022-12-25T16:09:04.316Z,100142.53
2022-12-25T16:11:30.836Z,100119.19
2022-12-25T16:13:57.659Z,100142.03
2022-12-25T16:16:24.261Z,100174.50
2022-12-25T16:18:51.247Z,100108.41
2022-12-25T16:21:19.613Z,100166.19
2022-12-25T16:23:46.472Z,100171.25
2022-12-25T16:26:13.051Z,100144.41
2022-12-25T16:28:39.577Z,100037.69
2022-12-25T16:31:06.285Z,100144.44
2022-12-25T16:33:33.544Z,100110.78
2022-12-25T16:36:00.312Z,100146.66
2022-12-25T16:38:27.145Z,100142.25
2022-12-25T16:40:58.939Z,100145.06
2022-12-25T16:43:26.729Z,100107.19
2022-12-25T16:45:53.621Z,100135.31
2022-12-25T16:48:20.522Z,100083.53
2022-12-25T16:50:47.079Z,100086.72
2022-12-25T16:53:13.721Z,100103.75
2022-12-25T16:55:40.233Z,100102.72
2022-12-25T16:58:07.109Z,100113.34
2022-12-25T17:00:34.791Z,100135.81
2022-12-25T17:03:01.826Z,100068.88
2022-12-25T17:05:28.881Z,100078.28
2022-12-25T17:07:55.449Z,100039.56
2022-12-25T17:10:22.276Z,100036.56
2022-12-25T17:12:48.885Z,100074.41
2022-12-25T17:15:15.535Z,100103.56
2022-12-25T17:17:42.157Z,100060.16
2022-12-25T17:20:09.992Z,100109.97
2022-12-25T17:22:36.677Z,100124.09
2022-12-25T17:25:03.457Z,100104.22
2022-12-25T17:27:30.048Z,100104.38
2022-12-25T17:29:56.686Z,100116.31
2022-12-25T17:32:23.181Z,100073.03
2022-12-25T17:34:49.902Z,100116.09
2022-12-25T17:37:16.761Z,100082.78
2022-12-25T17:39:43.264Z,100068.50
2022-12-25T17:42:09.744Z,100098.75
2022-12-25T17:44:36.431Z,100111.88
2022-12-25T17:47:03.520Z,100109.47
2022-12-25T17:49:31.500Z,100065.69
2022-12-25T17:51:58.054Z,100068.75
2022-12-25T17:54:25.209Z,100039.78
2022-12-25T17:56:51.741Z,100018.59
2022-12-25T17:59:19.147Z,100038.97
2022-12-25T18:01:47.180Z,100103.13
2022-12-25T18:04:14.184Z,100075.03
2022-12-25T18:06:40.994Z,100103.69
2022-12-25T18:09:07.911Z,100059.19
2022-12-25T18:11:38.820Z,100123.47
2022-12-25T18:14:06.405Z,100062.69
2022-12-25T18:16:35.917Z,100108.50
2022-12-25T18:19:02.644Z,100117.06
2022-12-25T18:21:29.923Z,100082.63
2022-12-25T18:23:56.616Z,100091.44
2022-12-25T18:26:26.468Z,100106.81
2022-12-25T18:28:53.195Z,100092.09
2022-12-25T18:31:22.645Z,100025.03
2022-12-25T18:33:50.257Z,100118.56
2022-12-25T18:36:20.220Z,100053.56
2022-12-25T18:38:48.208Z,100126.78
2022-12-25T18:41:15.410Z,100048.91
2022-12-25T18:43:53.736Z,100121.31
2022-12-25T18:46:25.131Z,100126.06
2022-12-25T18:48:53.656Z,100098.47
2022-12-25T18:51:20.429Z,100127.16
2022-12-25T18:53:47.081Z,100122.28
2022-12-25T18:56:17.166Z,100118.66
2022-12-25T18:58:43.911Z,100107.75
2022-12-25T19:01:11.906Z,100116.13
2022-12-25T19:03:38.868Z,100004.47
2022-12-25T19:06:05.746Z,100094.00
2022-12-25T19:08:32.368Z,100115.28
2022-12-25T19:10:59.064Z,100050.13
2022-12-25T19:13:25.756Z,100119.25
2022-12-25T19:15:52.615Z,100075.69
2022-12-25T19:18:19.494Z,100070.66
2022-12-25T19:20:46.054Z,100097.53
2022-12-25T19:23:12.796Z,100093.13
2022-12-25T19:25:39.984Z,100127.59
2022-12-25T19:28:09.445Z,100062.91
2022-12-25T19:30:38.073Z,100105.78
2022-12-25T19:33:06.520Z,100126.81
2022-12-25T19:35:34.527Z,100121.75
2022-12-25T19:38:01.092Z,100058.09
2022-12-25T19:40:27.665Z,100092.84
2022-12-25T19:42:54.379Z,100090.59
2022-12-25T19:45:21.829Z,100127.06
2022-12-25T19:47:48.407Z,99816.75
2022-12-25T19:50:15.043Z,100043.72
2022-12-25T19:52:41.520Z,100061.75
2022-12-25T19:55:11.498Z,100133.41
2022-12-25T19:57:40.027Z,100065.03
2022-12-25T20:00:07.412Z,100034.28
2022-12-25T20:02:34.132Z,100120.22
2022-12-25T20:05:00.714Z,100116.00
2022-12-25T20:07:27.724Z,100142.09
2022-12-25T20:09:54.233Z,100156.72
2022-12-25T20:12:20.711Z,100127.81
2022-12-25T20:14:47.646Z,100131.59
2022-12-25T20:17:16.103Z,100123.00
2022-12-25T20:19:42.909Z,100074.63
2022-12-25T20:22:12.492Z,100112.84
2022-12-25T20:24:41.213Z,100127.72
2022-12-25T20:27:07.798Z,100164.47
2022-12-25T20:29:34.362Z,100146.47
2022-12-25T20:32:00.997Z,100119.97
2022-12-25T20:34:27.492Z,100110.97
2022-12-25T20:36:54.049Z,100166.81
2022-12-25T20:39:20.538Z,100139.81
2022-12-25T20:41:47.572Z,100175.34
2022-12-25T20:44:14.454Z,100136.19
2022-12-25T20:46:41.231Z,100183.59
2022-12-25T20:49:07.830Z,100187.97
2022-12-25T20:51:34.427Z,100185.72
2022-12-25T20:54:01.613Z,100125.31
2022-12-25T20:56:29.940Z,100103.69
2022-12-25T20:59:00.073Z,100195.16
2022-12-25T21:01:28.507Z,100183.44
2022-12-25T21:03:55.476Z,100176.47
2022-12-25T21:06:22.660Z,100187.69
2022-12-25T21:08:49.315Z,100162.03
2022-12-25T21:11:16.784Z,100148.09
2022-12-25T21:13:45.382Z,100175.94
2022-12-25T21:16:18.592Z,100181.56
2022-12-25T21:18:46.212Z,100162.00
2022-12-25T21:21:12.762Z,100157.50
2022-12-25T21:23:39.938Z,100187.72
2022-12-25T21:26:11.811Z,100170.44
2022-12-25T21:28:38.788Z,100118.91
2022-12-25T21:31:06.061Z,100196.38
2022-12-25T21:33:51.489Z,100162.69
2022-12-25T21:36:29.248Z,100123.72
2022-12-25T21:38:59.706Z,100179.97
2022-12-25T21:41:27.722Z,100108.75
2022-12-25T21:43:54.822Z,100183.50
2022-12-25T21:46:21.678Z,100176.16
2022-12-25T21:48:48.697Z,100164.66
2022-12-25T21:51:36.322Z,100189.38
2022-12-25T21:54:04.077Z,100191.50
2022-12-25T21:56:31.922Z,100198.66
2022-12-25T21:59:02.960Z,100150.50
2022-12-25T22:01:30.251Z,100088.94
2022-12-25T22:04:01.443Z,100149.75
2022-12-25T22:06:46.673Z,100103.28
2022-12-25T22:09:13.188Z,100186.13
2022-12-25T22:11:58.490Z,100189.94
2022-12-25T22:14:51.355Z,100160.75
2022-12-25T22:17:47.532Z,100190.97
2022-12-25T22:20:21.578Z,100200.59
2022-12-25T22:22:48.748Z,100180.25
2022-12-25T22:25:17.152Z,100249.69
2022-12-25T22:27:45.111Z,100258.16
2022-12-25T22:30:20.375Z,100258.41
2022-12-25T22:32:47.047Z,100252.47
2022-12-25T22:35:14.128Z,100219.19
2022-12-25T22:37:41.838Z,100167.03
2022-12-25T22:40:11.858Z,100235.88
2022-12-25T22:42:38.395Z,100182.50
2022-12-25T22:45:05.607Z,100236.16
2022-12-25T22:47:32.301Z,100245.53
2022-12-25T22:49:58.798Z,100226.81
2022-12-25T22:52:25.447Z,100177.81
2022-12-25T22:54:52.316Z,100240.22
2022-12-25T22:57:18.849Z,100166.31
2022-12-25T22:59:45.729Z,100193.19
2022-12-25T23:02:12.468Z,100150.22
2022-12-25T23:04:39.208Z,100121.28
2022-12-25T23:07:06.702Z,100175.84
2022-12-25T23:09:36.569Z,100115.50
2022-12-25T23:12:03.221Z,100195.28
2022-12-25T23:14:38.786Z,100173.47
2022-12-25T23:17:07.827Z,100220.22
2022-12-25T23:19:52.944Z,100226.63
2022-12-25T23:22:38.125Z,100196.72
2022-12-25T23:25:33.087Z,100240.09
2022-12-25T23:27:59.558Z,100208.19
2022-12-25T23:30:26.576Z,100176.53
2022-12-25T23:32:53.245Z,100188.00
2022-12-25T23:35:19.881Z,100234.72
2022-12-25T23:37:47.086Z,100153.28
2022-12-25T23:40:13.827Z,100192.47
2022-12-25T23:42:40.648Z,100207.03
2022-12-25T23:45:07.998Z,100241.50
2022-12-25T23:47:34.596Z,100234.75
2022-12-25T23:50:01.086Z,100248.06
2022-12-25T23:52:27.796Z,100173.44
2022-12-25T23:54:54.276Z,100224.53
2022-12-25T23:57:21.105Z,100200.47
2022-12-25T23:59:47.864Z,100192.00
